sensor_id;sensor_type;location;lat;lon;timestamp;P1;durP1;ratioP1;P2;durP2;ratioP2
43419;SDS011;29017;51.514;-0.178;2023-05-07T00:02:02;4.45;;;1.48;;
43419;SDS011;29017;51.514;-0.178;2023-05-07T00:04:30;6.00;;;1.30;;
43419;SDS011;29017;51.514;-0.178;2023-05-07T00:09:30;8.80;;;2.13;;
43419;SDS011;29017;51.514;-0.178;2023-05-07T00:11:57;4.35;;;1.45;;
43419;SDS011;29017;51.514;-0.178;2023-05-07T00:14:24;2.45;;;1.55;;
43419;SDS011;29017;51.514;-0.178;2023-05-07T00:16:52;6.43;;;1.88;;
43419;SDS011;29017;51.514;-0.178;2023-05-07T00:19:19;5.55;;;1.63;;
43419;SDS011;29017;51.514;-0.178;2023-05-07T00:21:46;5.65;;;1.77;;
43419;SDS011;29017;51.514;-0.178;2023-05-07T00:24:14;3.35;;;1.45;;
43419;SDS011;29017;51.514;-0.178;2023-05-07T00:26:41;7.18;;;2.45;;
43419;SDS011;29017;51.514;-0.178;2023-05-07T00:29:08;3.75;;;1.58;;
43419;SDS011;29017;51.514;-0.178;2023-05-07T00:31:36;6.55;;;1.77;;
43419;SDS011;29017;51.514;-0.178;2023-05-07T00:34:03;4.78;;;1.98;;
43419;SDS011;29017;51.514;-0.178;2023-05-07T00:36:30;3.65;;;1.40;;
43419;SDS011;29017;51.514;-0.178;2023-05-07T00:38:59;4.35;;;1.80;;
43419;SDS011;29017;51.514;-0.178;2023-05-07T00:41:27;8.73;;;2.75;;
43419;SDS011;29017;51.514;-0.178;2023-05-07T00:43:54;4.90;;;1.92;;
43419;SDS011;29017;51.514;-0.178;2023-05-07T00:46:21;3.55;;;1.50;;
43419;SDS011;29017;51.514;-0.178;2023-05-07T00:48:49;7.95;;;2.70;;
43419;SDS011;29017;51.514;-0.178;2023-05-07T00:51:17;4.50;;;2.13;;
43419;SDS011;29017;51.514;-0.178;2023-05-07T00:53:45;4.88;;;1.70;;
43419;SDS011;29017;51.514;-0.178;2023-05-07T00:56:13;7.68;;;1.77;;
43419;SDS011;29017;51.514;-0.178;2023-05-07T00:58:40;9.15;;;2.63;;
43419;SDS011;29017;51.514;-0.178;2023-05-07T01:01:07;4.68;;;2.40;;
43419;SDS011;29017;51.514;-0.178;2023-05-07T01:03:35;6.15;;;2.90;;
43419;SDS011;29017;51.514;-0.178;2023-05-07T01:06:02;4.53;;;2.20;;
43419;SDS011;29017;51.514;-0.178;2023-05-07T01:08:31;6.15;;;2.25;;
43419;SDS011;29017;51.514;-0.178;2023-05-07T01:11:01;6.15;;;2.50;;
43419;SDS011;29017;51.514;-0.178;2023-05-07T01:13:29;7.13;;;2.60;;
43419;SDS011;29017;51.514;-0.178;2023-05-07T01:15:56;5.45;;;2.38;;
43419;SDS011;29017;51.514;-0.178;2023-05-07T01:18:24;7.68;;;3.13;;
43419;SDS011;29017;51.514;-0.178;2023-05-07T01:20:52;7.00;;;2.70;;
43419;SDS011;29017;51.514;-0.178;2023-05-07T01:23:19;6.05;;;2.63;;
43419;SDS011;29017;51.514;-0.178;2023-05-07T01:25:51;5.78;;;2.72;;
43419;SDS011;29017;51.514;-0.178;2023-05-07T01:28:19;5.93;;;3.47;;
43419;SDS011;29017;51.514;-0.178;2023-05-07T01:30:48;7.03;;;3.10;;
43419;SDS011;29017;51.514;-0.178;2023-05-07T01:33:20;4.78;;;2.92;;
43419;SDS011;29017;51.514;-0.178;2023-05-07T01:35:49;8.32;;;2.97;;
43419;SDS011;29017;51.514;-0.178;2023-05-07T01:38:20;6.32;;;2.38;;
43419;SDS011;29017;51.514;-0.178;2023-05-07T01:40:49;29.92;;;4.22;;
43419;SDS011;29017;51.514;-0.178;2023-05-07T01:43:16;7.32;;;3.08;;
43419;SDS011;29017;51.514;-0.178;2023-05-07T01:45:44;7.60;;;3.22;;
43419;SDS011;29017;51.514;-0.178;2023-05-07T01:48:12;289.05;;;14.95;;
43419;SDS011;29017;51.514;-0.178;2023-05-07T01:50:41;55.80;;;7.75;;
43419;SDS011;29017;51.514;-0.178;2023-05-07T01:53:09;55.25;;;7.13;;
43419;SDS011;29017;51.514;-0.178;2023-05-07T01:55:37;9.73;;;4.53;;
43419;SDS011;29017;51.514;-0.178;2023-05-07T01:58:04;16.33;;;5.25;;
43419;SDS011;29017;51.514;-0.178;2023-05-07T02:00:31;9.05;;;4.93;;
43419;SDS011;29017;51.514;-0.178;2023-05-07T02:02:58;18.60;;;5.10;;
43419;SDS011;29017;51.514;-0.178;2023-05-07T02:05:26;16.05;;;5.25;;
43419;SDS011;29017;51.514;-0.178;2023-05-07T02:07:53;10.32;;;5.03;;
43419;SDS011;29017;51.514;-0.178;2023-05-07T02:10:20;10.02;;;5.35;;
43419;SDS011;29017;51.514;-0.178;2023-05-07T02:12:47;12.98;;;5.88;;
43419;SDS011;29017;51.514;-0.178;2023-05-07T02:15:15;23.52;;;6.07;;
43419;SDS011;29017;51.514;-0.178;2023-05-07T02:20:15;20.38;;;6.72;;
43419;SDS011;29017;51.514;-0.178;2023-05-07T02:22:43;12.50;;;6.45;;
43419;SDS011;29017;51.514;-0.178;2023-05-07T02:25:10;11.73;;;6.00;;
43419;SDS011;29017;51.514;-0.178;2023-05-07T02:27:37;13.32;;;6.57;;
43419;SDS011;29017;51.514;-0.178;2023-05-07T02:30:05;35.17;;;9.02;;
43419;SDS011;29017;51.514;-0.178;2023-05-07T02:32:33;16.00;;;7.85;;
43419;SDS011;29017;51.514;-0.178;2023-05-07T02:35:00;14.00;;;7.68;;
43419;SDS011;29017;51.514;-0.178;2023-05-07T02:37:27;53.58;;;10.88;;
43419;SDS011;29017;51.514;-0.178;2023-05-07T02:39:54;18.25;;;7.97;;
43419;SDS011;29017;51.514;-0.178;2023-05-07T02:42:21;16.67;;;7.93;;
43419;SDS011;29017;51.514;-0.178;2023-05-07T02:44:49;16.60;;;7.70;;
43419;SDS011;29017;51.514;-0.178;2023-05-07T02:47:16;14.18;;;7.82;;
43419;SDS011;29017;51.514;-0.178;2023-05-07T02:49:43;13.88;;;7.22;;
43419;SDS011;29017;51.514;-0.178;2023-05-07T02:52:10;14.90;;;6.93;;
43419;SDS011;29017;51.514;-0.178;2023-05-07T02:54:37;17.13;;;8.55;;
43419;SDS011;29017;51.514;-0.178;2023-05-07T02:57:04;52.20;;;10.23;;
43419;SDS011;29017;51.514;-0.178;2023-05-07T02:59:32;18.58;;;8.60;;
43419;SDS011;29017;51.514;-0.178;2023-05-07T03:01:59;14.15;;;7.05;;
43419;SDS011;29017;51.514;-0.178;2023-05-07T03:04:26;16.25;;;8.25;;
43419;SDS011;29017;51.514;-0.178;2023-05-07T03:06:54;17.35;;;8.52;;
43419;SDS011;29017;51.514;-0.178;2023-05-07T03:09:21;17.50;;;7.80;;
43419;SDS011;29017;51.514;-0.178;2023-05-07T03:11:48;16.05;;;8.25;;
43419;SDS011;29017;51.514;-0.178;2023-05-07T03:14:16;15.20;;;7.57;;
43419;SDS011;29017;51.514;-0.178;2023-05-07T03:16:43;17.08;;;8.00;;
43419;SDS011;29017;51.514;-0.178;2023-05-07T03:19:10;16.73;;;8.40;;
43419;SDS011;29017;51.514;-0.178;2023-05-07T03:21:37;18.63;;;9.40;;
43419;SDS011;29017;51.514;-0.178;2023-05-07T03:24:05;23.33;;;10.95;;
43419;SDS011;29017;51.514;-0.178;2023-05-07T03:26:32;20.27;;;9.40;;
43419;SDS011;29017;51.514;-0.178;2023-05-07T03:28:59;23.10;;;10.68;;
43419;SDS011;29017;51.514;-0.178;2023-05-07T03:31:26;20.67;;;9.48;;
43419;SDS011;29017;51.514;-0.178;2023-05-07T03:33:55;63.53;;;10.75;;
43419;SDS011;29017;51.514;-0.178;2023-05-07T03:36:24;22.55;;;9.13;;
43419;SDS011;29017;51.514;-0.178;2023-05-07T03:38:53;27.25;;;9.02;;
43419;SDS011;29017;51.514;-0.178;2023-05-07T03:41:20;18.58;;;8.05;;
43419;SDS011;29017;51.514;-0.178;2023-05-07T03:43:47;21.38;;;10.45;;
43419;SDS011;29017;51.514;-0.178;2023-05-07T03:46:15;16.35;;;8.00;;
43419;SDS011;29017;51.514;-0.178;2023-05-07T03:48:42;26.90;;;9.13;;
43419;SDS011;29017;51.514;-0.178;2023-05-07T03:51:09;16.35;;;7.30;;
43419;SDS011;29017;51.514;-0.178;2023-05-07T03:53:37;18.70;;;7.75;;
43419;SDS011;29017;51.514;-0.178;2023-05-07T03:56:04;24.15;;;9.10;;
43419;SDS011;29017;51.514;-0.178;2023-05-07T03:58:31;15.65;;;6.85;;
43419;SDS011;29017;51.514;-0.178;2023-05-07T04:00:59;16.25;;;7.10;;
43419;SDS011;29017;51.514;-0.178;2023-05-07T04:03:26;20.27;;;7.97;;
43419;SDS011;29017;51.514;-0.178;2023-05-07T04:05:54;18.05;;;7.88;;
43419;SDS011;29017;51.514;-0.178;2023-05-07T04:08:21;17.77;;;8.43;;
43419;SDS011;29017;51.514;-0.178;2023-05-07T04:10:53;15.63;;;6.88;;
43419;SDS011;29017;51.514;-0.178;2023-05-07T04:15:48;19.67;;;7.07;;
43419;SDS011;29017;51.514;-0.178;2023-05-07T04:18:15;14.93;;;7.15;;
43419;SDS011;29017;51.514;-0.178;2023-05-07T04:20:43;15.10;;;6.90;;
43419;SDS011;29017;51.514;-0.178;2023-05-07T04:23:10;16.67;;;7.75;;
43419;SDS011;29017;51.514;-0.178;2023-05-07T04:25:37;17.95;;;6.47;;
43419;SDS011;29017;51.514;-0.178;2023-05-07T04:28:04;14.93;;;6.88;;
43419;SDS011;29017;51.514;-0.178;2023-05-07T04:30:32;15.20;;;7.57;;
43419;SDS011;29017;51.514;-0.178;2023-05-07T04:32:59;17.60;;;7.43;;
43419;SDS011;29017;51.514;-0.178;2023-05-07T04:35:27;16.70;;;7.97;;
43419;SDS011;29017;51.514;-0.178;2023-05-07T04:37:55;15.40;;;7.13;;
43419;SDS011;29017;51.514;-0.178;2023-05-07T04:40:22;15.98;;;7.18;;
43419;SDS011;29017;51.514;-0.178;2023-05-07T04:42:49;17.85;;;6.95;;
43419;SDS011;29017;51.514;-0.178;2023-05-07T04:45:17;15.93;;;7.25;;
43419;SDS011;29017;51.514;-0.178;2023-05-07T04:47:45;14.80;;;6.70;;
43419;SDS011;29017;51.514;-0.178;2023-05-07T04:50:12;14.30;;;6.68;;
43419;SDS011;29017;51.514;-0.178;2023-05-07T04:52:40;16.75;;;7.22;;
43419;SDS011;29017;51.514;-0.178;2023-05-07T04:55:07;17.80;;;7.30;;
43419;SDS011;29017;51.514;-0.178;2023-05-07T04:57:35;23.10;;;8.48;;
43419;SDS011;29017;51.514;-0.178;2023-05-07T05:00:02;14.95;;;7.00;;
43419;SDS011;29017;51.514;-0.178;2023-05-07T05:02:31;15.70;;;6.65;;
43419;SDS011;29017;51.514;-0.178;2023-05-07T05:04:58;17.10;;;7.15;;
43419;SDS011;29017;51.514;-0.178;2023-05-07T05:07:25;14.93;;;6.93;;
43419;SDS011;29017;51.514;-0.178;2023-05-07T05:09:53;15.00;;;7.43;;
43419;SDS011;29017;51.514;-0.178;2023-05-07T05:12:20;15.95;;;7.35;;
43419;SDS011;29017;51.514;-0.178;2023-05-07T05:14:47;15.43;;;6.97;;
43419;SDS011;29017;51.514;-0.178;2023-05-07T05:17:14;15.45;;;6.45;;
43419;SDS011;29017;51.514;-0.178;2023-05-07T05:19:41;14.50;;;6.88;;
43419;SDS011;29017;51.514;-0.178;2023-05-07T05:22:09;15.50;;;6.18;;
43419;SDS011;29017;51.514;-0.178;2023-05-07T05:24:36;14.15;;;6.40;;
43419;SDS011;29017;51.514;-0.178;2023-05-07T05:27:04;15.57;;;6.50;;
43419;SDS011;29017;51.514;-0.178;2023-05-07T05:29:31;15.73;;;6.43;;
43419;SDS011;29017;51.514;-0.178;2023-05-07T05:31:59;11.00;;;5.30;;
43419;SDS011;29017;51.514;-0.178;2023-05-07T05:34:26;9.73;;;5.07;;
43419;SDS011;29017;51.514;-0.178;2023-05-07T05:36:54;10.98;;;4.85;;
43419;SDS011;29017;51.514;-0.178;2023-05-07T05:39:21;10.05;;;5.00;;
43419;SDS011;29017;51.514;-0.178;2023-05-07T05:41:49;12.68;;;5.47;;
43419;SDS011;29017;51.514;-0.178;2023-05-07T05:44:16;13.27;;;5.50;;
43419;SDS011;29017;51.514;-0.178;2023-05-07T05:46:44;12.95;;;5.10;;
43419;SDS011;29017;51.514;-0.178;2023-05-07T05:49:11;9.93;;;4.90;;
43419;SDS011;29017;51.514;-0.178;2023-05-07T05:51:38;10.75;;;4.47;;
43419;SDS011;29017;51.514;-0.178;2023-05-07T05:54:06;8.80;;;3.90;;
43419;SDS011;29017;51.514;-0.178;2023-05-07T05:56:33;8.30;;;3.50;;
43419;SDS011;29017;51.514;-0.178;2023-05-07T05:59:00;9.82;;;3.75;;
43419;SDS011;29017;51.514;-0.178;2023-05-07T06:01:28;8.20;;;3.92;;
43419;SDS011;29017;51.514;-0.178;2023-05-07T06:03:55;12.43;;;4.93;;
43419;SDS011;29017;51.514;-0.178;2023-05-07T06:06:23;16.30;;;6.00;;
43419;SDS011;29017;51.514;-0.178;2023-05-07T06:08:50;10.65;;;4.75;;
43419;SDS011;29017;51.514;-0.178;2023-05-07T06:11:17;7.07;;;3.67;;
43419;SDS011;29017;51.514;-0.178;2023-05-07T06:13:44;9.90;;;3.58;;
43419;SDS011;29017;51.514;-0.178;2023-05-07T06:16:12;9.65;;;3.95;;
43419;SDS011;29017;51.514;-0.178;2023-05-07T06:18:39;7.65;;;3.42;;
43419;SDS011;29017;51.514;-0.178;2023-05-07T06:21:06;8.88;;;3.88;;
43419;SDS011;29017;51.514;-0.178;2023-05-07T06:23:34;7.78;;;2.58;;
43419;SDS011;29017;51.514;-0.178;2023-05-07T06:26:01;6.97;;;3.42;;
43419;SDS011;29017;51.514;-0.178;2023-05-07T06:28:29;5.70;;;3.13;;
43419;SDS011;29017;51.514;-0.178;2023-05-07T06:33:35;7.95;;;3.35;;
43419;SDS011;29017;51.514;-0.178;2023-05-07T06:36:03;8.32;;;4.20;;
43419;SDS011;29017;51.514;-0.178;2023-05-07T06:38:31;7.88;;;3.90;;
43419;SDS011;29017;51.514;-0.178;2023-05-07T06:40:58;8.88;;;4.32;;
43419;SDS011;29017;51.514;-0.178;2023-05-07T06:43:25;11.60;;;5.05;;
43419;SDS011;29017;51.514;-0.178;2023-05-07T06:45:52;12.85;;;5.47;;
43419;SDS011;29017;51.514;-0.178;2023-05-07T06:48:19;11.40;;;5.15;;
43419;SDS011;29017;51.514;-0.178;2023-05-07T06:50:47;10.95;;;4.70;;
43419;SDS011;29017;51.514;-0.178;2023-05-07T06:53:14;13.15;;;6.40;;
43419;SDS011;29017;51.514;-0.178;2023-05-07T06:55:41;13.27;;;5.60;;
43419;SDS011;29017;51.514;-0.178;2023-05-07T06:58:09;12.77;;;5.43;;
43419;SDS011;29017;51.514;-0.178;2023-05-07T07:00:36;13.48;;;5.47;;
43419;SDS011;29017;51.514;-0.178;2023-05-07T07:03:03;12.07;;;6.60;;
43419;SDS011;29017;51.514;-0.178;2023-05-07T07:05:30;14.40;;;6.78;;
43419;SDS011;29017;51.514;-0.178;2023-05-07T07:07:58;11.60;;;6.20;;
43419;SDS011;29017;51.514;-0.178;2023-05-07T07:10:25;11.20;;;5.57;;
43419;SDS011;29017;51.514;-0.178;2023-05-07T07:12:52;11.80;;;5.22;;
43419;SDS011;29017;51.514;-0.178;2023-05-07T07:15:19;14.77;;;5.20;;
43419;SDS011;29017;51.514;-0.178;2023-05-07T07:17:47;10.10;;;4.40;;
43419;SDS011;29017;51.514;-0.178;2023-05-07T07:20:15;8.82;;;4.47;;
43419;SDS011;29017;51.514;-0.178;2023-05-07T07:22:43;10.77;;;4.38;;
43419;SDS011;29017;51.514;-0.178;2023-05-07T07:25:10;9.60;;;5.03;;
43419;SDS011;29017;51.514;-0.178;2023-05-07T07:27:38;9.98;;;4.85;;
43419;SDS011;29017;51.514;-0.178;2023-05-07T07:30:06;11.50;;;5.10;;
43419;SDS011;29017;51.514;-0.178;2023-05-07T07:32:35;9.93;;;4.32;;
43419;SDS011;29017;51.514;-0.178;2023-05-07T07:35:02;9.32;;;4.90;;
43419;SDS011;29017;51.514;-0.178;2023-05-07T07:37:31;10.57;;;4.53;;
43419;SDS011;29017;51.514;-0.178;2023-05-07T07:39:58;9.10;;;4.85;;
43419;SDS011;29017;51.514;-0.178;2023-05-07T07:42:25;11.52;;;5.10;;
43419;SDS011;29017;51.514;-0.178;2023-05-07T07:44:53;11.50;;;5.78;;
43419;SDS011;29017;51.514;-0.178;2023-05-07T07:47:20;11.85;;;6.03;;
43419;SDS011;29017;51.514;-0.178;2023-05-07T07:49:47;11.25;;;5.80;;
43419;SDS011;29017;51.514;-0.178;2023-05-07T07:52:14;10.73;;;5.53;;
43419;SDS011;29017;51.514;-0.178;2023-05-07T07:54:42;10.77;;;5.43;;
43419;SDS011;29017;51.514;-0.178;2023-05-07T07:57:09;11.65;;;5.47;;
43419;SDS011;29017;51.514;-0.178;2023-05-07T07:59:36;11.75;;;5.00;;
43419;SDS011;29017;51.514;-0.178;2023-05-07T08:02:04;8.90;;;4.47;;
43419;SDS011;29017;51.514;-0.178;2023-05-07T08:04:31;10.77;;;5.00;;
43419;SDS011;29017;51.514;-0.178;2023-05-07T08:07:00;10.55;;;4.50;;
43419;SDS011;29017;51.514;-0.178;2023-05-07T08:09:27;9.25;;;4.00;;
43419;SDS011;29017;51.514;-0.178;2023-05-07T08:11:54;9.20;;;4.57;;
43419;SDS011;29017;51.514;-0.178;2023-05-07T08:14:22;10.73;;;5.55;;
43419;SDS011;29017;51.514;-0.178;2023-05-07T08:16:49;10.75;;;5.13;;
43419;SDS011;29017;51.514;-0.178;2023-05-07T08:19:16;8.60;;;4.63;;
43419;SDS011;29017;51.514;-0.178;2023-05-07T08:21:44;11.10;;;4.45;;
43419;SDS011;29017;51.514;-0.178;2023-05-07T08:24:11;6.65;;;4.18;;
43419;SDS011;29017;51.514;-0.178;2023-05-07T08:26:38;6.75;;;3.70;;
43419;SDS011;29017;51.514;-0.178;2023-05-07T08:29:06;7.32;;;4.22;;
43419;SDS011;29017;51.514;-0.178;2023-05-07T08:31:34;8.98;;;4.38;;
43419;SDS011;29017;51.514;-0.178;2023-05-07T08:34:03;9.20;;;4.50;;
43419;SDS011;29017;51.514;-0.178;2023-05-07T08:36:34;7.68;;;4.85;;
43419;SDS011;29017;51.514;-0.178;2023-05-07T08:39:01;8.45;;;4.63;;
43419;SDS011;29017;51.514;-0.178;2023-05-07T08:41:29;8.38;;;4.75;;
43419;SDS011;29017;51.514;-0.178;2023-05-07T08:43:57;9.25;;;4.25;;
43419;SDS011;29017;51.514;-0.178;2023-05-07T08:46:26;8.00;;;4.45;;
43419;SDS011;29017;51.514;-0.178;2023-05-07T08:48:58;10.15;;;4.97;;
43419;SDS011;29017;51.514;-0.178;2023-05-07T08:51:26;8.95;;;4.57;;
43419;SDS011;29017;51.514;-0.178;2023-05-07T08:53:53;8.35;;;5.07;;
43419;SDS011;29017;51.514;-0.178;2023-05-07T08:56:21;8.38;;;4.50;;
43419;SDS011;29017;51.514;-0.178;2023-05-07T08:58:48;7.45;;;4.38;;
43419;SDS011;29017;51.514;-0.178;2023-05-07T09:01:16;6.60;;;4.07;;
43419;SDS011;29017;51.514;-0.178;2023-05-07T09:03:44;7.68;;;4.13;;
43419;SDS011;29017;51.514;-0.178;2023-05-07T09:06:13;8.45;;;3.97;;
43419;SDS011;29017;51.514;-0.178;2023-05-07T09:08:40;7.93;;;3.92;;
43419;SDS011;29017;51.514;-0.178;2023-05-07T09:11:07;7.38;;;3.75;;
43419;SDS011;29017;51.514;-0.178;2023-05-07T09:13:35;7.40;;;4.25;;
43419;SDS011;29017;51.514;-0.178;2023-05-07T09:18:40;6.78;;;3.60;;
43419;SDS011;29017;51.514;-0.178;2023-05-07T09:21:09;7.30;;;4.15;;
43419;SDS011;29017;51.514;-0.178;2023-05-07T09:23:38;7.05;;;3.53;;
43419;SDS011;29017;51.514;-0.178;2023-05-07T09:26:06;7.15;;;3.22;;
43419;SDS011;29017;51.514;-0.178;2023-05-07T09:28:39;7.20;;;3.25;;
43419;SDS011;29017;51.514;-0.178;2023-05-07T09:31:08;6.53;;;2.63;;
43419;SDS011;29017;51.514;-0.178;2023-05-07T09:33:37;6.93;;;3.10;;
43419;SDS011;29017;51.514;-0.178;2023-05-07T09:36:05;6.05;;;2.85;;
43419;SDS011;29017;51.514;-0.178;2023-05-07T09:38:34;5.38;;;2.35;;
43419;SDS011;29017;51.514;-0.178;2023-05-07T09:48:39;5.88;;;3.25;;
43419;SDS011;29017;51.514;-0.178;2023-05-07T09:51:11;6.90;;;3.33;;
43419;SDS011;29017;51.514;-0.178;2023-05-07T09:53:48;5.38;;;3.20;;
43419;SDS011;29017;51.514;-0.178;2023-05-07T09:56:19;4.70;;;2.72;;
43419;SDS011;29017;51.514;-0.178;2023-05-07T09:58:48;3.55;;;2.20;;
43419;SDS011;29017;51.514;-0.178;2023-05-07T10:01:18;8.18;;;5.05;;
43419;SDS011;29017;51.514;-0.178;2023-05-07T10:03:49;5.68;;;2.80;;
43419;SDS011;29017;51.514;-0.178;2023-05-07T10:06:18;3.72;;;2.65;;
43419;SDS011;29017;51.514;-0.178;2023-05-07T10:08:47;3.25;;;1.75;;
43419;SDS011;29017;51.514;-0.178;2023-05-07T10:11:15;3.55;;;1.60;;
43419;SDS011;29017;51.514;-0.178;2023-05-07T10:13:43;3.03;;;1.63;;
43419;SDS011;29017;51.514;-0.178;2023-05-07T10:16:12;5.43;;;2.30;;
43419;SDS011;29017;51.514;-0.178;2023-05-07T10:18:41;3.55;;;2.03;;
43419;SDS011;29017;51.514;-0.178;2023-05-07T10:21:11;4.95;;;2.05;;
43419;SDS011;29017;51.514;-0.178;2023-05-07T10:23:45;3.22;;;1.55;;
43419;SDS011;29017;51.514;-0.178;2023-05-07T10:28:47;3.30;;;1.58;;
43419;SDS011;29017;51.514;-0.178;2023-05-07T10:33:53;1.80;;;0.90;;
43419;SDS011;29017;51.514;-0.178;2023-05-07T10:36:23;1.77;;;0.82;;
43419;SDS011;29017;51.514;-0.178;2023-05-07T10:38:52;2.28;;;0.70;;
43419;SDS011;29017;51.514;-0.178;2023-05-07T10:41:19;2.25;;;0.88;;
43419;SDS011;29017;51.514;-0.178;2023-05-07T10:43:47;1.73;;;0.70;;
43419;SDS011;29017;51.514;-0.178;2023-05-07T10:51:18;1.60;;;0.70;;
43419;SDS011;29017;51.514;-0.178;2023-05-07T10:53:47;2.22;;;0.60;;
43419;SDS011;29017;51.514;-0.178;2023-05-07T10:58:45;2.50;;;1.08;;
43419;SDS011;29017;51.514;-0.178;2023-05-07T11:01:13;5.15;;;2.03;;
43419;SDS011;29017;51.514;-0.178;2023-05-07T11:04:12;17.20;;;7.25;;
43419;SDS011;29017;51.514;-0.178;2023-05-07T11:06:31;4.07;;;1.80;;
43419;SDS011;29017;51.514;-0.178;2023-05-07T11:09:01;33.97;;;14.23;;
43419;SDS011;29017;51.514;-0.178;2023-05-07T11:14:14;4.70;;;1.83;;
43419;SDS011;29017;51.514;-0.178;2023-05-07T11:17:02;18.70;;;7.82;;
43419;SDS011;29017;51.514;-0.178;2023-05-07T11:22:28;3.75;;;1.58;;
43419;SDS011;29017;51.514;-0.178;2023-05-07T11:25:00;6.90;;;2.20;;
43419;SDS011;29017;51.514;-0.178;2023-05-07T11:27:28;3.28;;;1.80;;
43419;SDS011;29017;51.514;-0.178;2023-05-07T11:29:56;4.47;;;2.65;;
43419;SDS011;29017;51.514;-0.178;2023-05-07T11:32:23;3.40;;;1.80;;
43419;SDS011;29017;51.514;-0.178;2023-05-07T11:34:51;3.05;;;1.50;;
43419;SDS011;29017;51.514;-0.178;2023-05-07T11:37:21;4.95;;;2.55;;
43419;SDS011;29017;51.514;-0.178;2023-05-07T11:39:49;5.70;;;2.25;;
43419;SDS011;29017;51.514;-0.178;2023-05-07T11:44:53;3.08;;;1.77;;
43419;SDS011;29017;51.514;-0.178;2023-05-07T11:47:21;4.00;;;1.45;;
43419;SDS011;29017;51.514;-0.178;2023-05-07T11:49:49;3.30;;;1.50;;
43419;SDS011;29017;51.514;-0.178;2023-05-07T11:52:18;2.90;;;1.40;;
43419;SDS011;29017;51.514;-0.178;2023-05-07T11:57:18;4.30;;;1.40;;
43419;SDS011;29017;51.514;-0.178;2023-05-07T11:59:46;2.70;;;1.67;;
43419;SDS011;29017;51.514;-0.178;2023-05-07T12:02:15;9.20;;;2.85;;
43419;SDS011;29017;51.514;-0.178;2023-05-07T12:04:42;2.08;;;1.40;;
43419;SDS011;29017;51.514;-0.178;2023-05-07T12:07:12;2.25;;;1.30;;
43419;SDS011;29017;51.514;-0.178;2023-05-07T12:09:41;2.63;;;1.50;;
43419;SDS011;29017;51.514;-0.178;2023-05-07T12:12:09;2.10;;;1.08;;
43419;SDS011;29017;51.514;-0.178;2023-05-07T12:14:39;1.80;;;0.90;;
43419;SDS011;29017;51.514;-0.178;2023-05-07T12:17:07;2.25;;;1.02;;
43419;SDS011;29017;51.514;-0.178;2023-05-07T12:19:35;1.77;;;0.70;;
43419;SDS011;29017;51.514;-0.178;2023-05-07T12:22:04;4.28;;;1.27;;
43419;SDS011;29017;51.514;-0.178;2023-05-07T12:27:05;2.28;;;0.88;;
43419;SDS011;29017;51.514;-0.178;2023-05-07T12:29:32;2.97;;;1.33;;
43419;SDS011;29017;51.514;-0.178;2023-05-07T12:32:00;2.85;;;1.10;;
43419;SDS011;29017;51.514;-0.178;2023-05-07T12:34:29;4.93;;;1.45;;
43419;SDS011;29017;51.514;-0.178;2023-05-07T12:37:01;2.10;;;1.20;;
43419;SDS011;29017;51.514;-0.178;2023-05-07T12:39:30;2.80;;;1.42;;
43419;SDS011;29017;51.514;-0.178;2023-05-07T12:41:59;2.95;;;1.25;;
43419;SDS011;29017;51.514;-0.178;2023-05-07T12:46:58;3.38;;;1.40;;
43419;SDS011;29017;51.514;-0.178;2023-05-07T12:49:29;3.22;;;1.10;;
43419;SDS011;29017;51.514;-0.178;2023-05-07T12:51:56;3.03;;;1.17;;
43419;SDS011;29017;51.514;-0.178;2023-05-07T12:59:30;2.97;;;1.57;;
43419;SDS011;29017;51.514;-0.178;2023-05-07T13:01:59;3.10;;;1.05;;
43419;SDS011;29017;51.514;-0.178;2023-05-07T13:04:27;3.47;;;1.20;;
43419;SDS011;29017;51.514;-0.178;2023-05-07T13:06:54;3.13;;;1.33;;
43419;SDS011;29017;51.514;-0.178;2023-05-07T13:09:22;2.05;;;0.88;;
43419;SDS011;29017;51.514;-0.178;2023-05-07T13:11:49;3.10;;;1.10;;
43419;SDS011;29017;51.514;-0.178;2023-05-07T13:14:16;4.75;;;1.20;;
43419;SDS011;29017;51.514;-0.178;2023-05-07T13:16:44;2.63;;;0.80;;
43419;SDS011;29017;51.514;-0.178;2023-05-07T13:19:11;2.65;;;0.77;;
43419;SDS011;29017;51.514;-0.178;2023-05-07T13:21:39;2.67;;;0.90;;
43419;SDS011;29017;51.514;-0.178;2023-05-07T13:24:07;2.40;;;0.80;;
43419;SDS011;29017;51.514;-0.178;2023-05-07T13:26:35;2.05;;;0.70;;
43419;SDS011;29017;51.514;-0.178;2023-05-07T13:29:02;2.35;;;0.60;;
43419;SDS011;29017;51.514;-0.178;2023-05-07T13:31:30;1.75;;;0.80;;
43419;SDS011;29017;51.514;-0.178;2023-05-07T13:33:57;1.15;;;0.73;;
43419;SDS011;29017;51.514;-0.178;2023-05-07T13:36:25;1.88;;;0.60;;
43419;SDS011;29017;51.514;-0.178;2023-05-07T13:38:53;1.23;;;0.50;;
43419;SDS011;29017;51.514;-0.178;2023-05-07T13:41:21;2.22;;;0.80;;
43419;SDS011;29017;51.514;-0.178;2023-05-07T13:43:48;1.25;;;0.63;;
43419;SDS011;29017;51.514;-0.178;2023-05-07T13:46:16;2.05;;;0.60;;
43419;SDS011;29017;51.514;-0.178;2023-05-07T13:48:43;0.80;;;0.40;;
43419;SDS011;29017;51.514;-0.178;2023-05-07T13:51:11;1.20;;;0.50;;
43419;SDS011;29017;51.514;-0.178;2023-05-07T13:53:38;1.00;;;0.50;;
43419;SDS011;29017;51.514;-0.178;2023-05-07T13:56:06;1.70;;;0.70;;
43419;SDS011;29017;51.514;-0.178;2023-05-07T13:58:33;1.98;;;0.60;;
43419;SDS011;29017;51.514;-0.178;2023-05-07T14:01:10;1.52;;;0.60;;
43419;SDS011;29017;51.514;-0.178;2023-05-07T14:03:37;1.90;;;0.80;;
43419;SDS011;29017;51.514;-0.178;2023-05-07T14:06:06;2.22;;;0.65;;
43419;SDS011;29017;51.514;-0.178;2023-05-07T14:08:34;2.35;;;0.60;;
43419;SDS011;29017;51.514;-0.178;2023-05-07T14:11:01;1.60;;;0.68;;
43419;SDS011;29017;51.514;-0.178;2023-05-07T14:13:28;2.05;;;0.68;;
43419;SDS011;29017;51.514;-0.178;2023-05-07T14:15:58;2.17;;;0.77;;
43419;SDS011;29017;51.514;-0.178;2023-05-07T14:18:25;1.17;;;0.50;;
43419;SDS011;29017;51.514;-0.178;2023-05-07T14:20:52;2.38;;;0.57;;
43419;SDS011;29017;51.514;-0.178;2023-05-07T14:23:20;2.20;;;0.40;;
43419;SDS011;29017;51.514;-0.178;2023-05-07T14:25:53;0.98;;;0.50;;
43419;SDS011;29017;51.514;-0.178;2023-05-07T14:28:20;2.00;;;0.50;;
43419;SDS011;29017;51.514;-0.178;2023-05-07T14:30:47;1.20;;;0.70;;
43419;SDS011;29017;51.514;-0.178;2023-05-07T14:33:15;2.33;;;0.95;;
43419;SDS011;29017;51.514;-0.178;2023-05-07T14:35:44;1.35;;;0.70;;
43419;SDS011;29017;51.514;-0.178;2023-05-07T14:38:15;1.77;;;0.60;;
43419;SDS011;29017;51.514;-0.178;2023-05-07T14:40:42;1.83;;;0.68;;
43419;SDS011;29017;51.514;-0.178;2023-05-07T14:43:10;2.03;;;0.38;;
43419;SDS011;29017;51.514;-0.178;2023-05-07T14:45:37;1.80;;;0.60;;
43419;SDS011;29017;51.514;-0.178;2023-05-07T14:48:05;1.45;;;0.52;;
43419;SDS011;29017;51.514;-0.178;2023-05-07T14:50:32;1.20;;;0.40;;
43419;SDS011;29017;51.514;-0.178;2023-05-07T14:52:59;2.22;;;0.50;;
43419;SDS011;29017;51.514;-0.178;2023-05-07T14:55:27;2.60;;;0.57;;
43419;SDS011;29017;51.514;-0.178;2023-05-07T14:57:55;1.20;;;0.50;;
43419;SDS011;29017;51.514;-0.178;2023-05-07T15:00:22;2.30;;;0.40;;
43419;SDS011;29017;51.514;-0.178;2023-05-07T15:02:50;2.03;;;0.50;;
43419;SDS011;29017;51.514;-0.178;2023-05-07T15:05:17;1.80;;;0.40;;
43419;SDS011;29017;51.514;-0.178;2023-05-07T15:07:46;2.47;;;0.40;;
43419;SDS011;29017;51.514;-0.178;2023-05-07T15:10:13;0.85;;;0.40;;
43419;SDS011;29017;51.514;-0.178;2023-05-07T15:12:42;3.40;;;0.40;;
43419;SDS011;29017;51.514;-0.178;2023-05-07T15:15:10;1.13;;;0.40;;
43419;SDS011;29017;51.514;-0.178;2023-05-07T15:17:38;1.30;;;0.40;;
43419;SDS011;29017;51.514;-0.178;2023-05-07T15:20:06;1.17;;;0.57;;
43419;SDS011;29017;51.514;-0.178;2023-05-07T15:22:35;1.00;;;0.50;;
43419;SDS011;29017;51.514;-0.178;2023-05-07T15:25:04;2.80;;;0.50;;
43419;SDS011;29017;51.514;-0.178;2023-05-07T15:27:32;1.48;;;0.50;;